< < Back
Terminal Aerodrome Forecast


Current Version              Previous Versions:   1  2  3  4  5  6  7  8  9  

Terminal Aerodrome Forecast

921
FTUS42 KFFC 200500
TAFFTY
TAF
KFTY 200520Z 2006/2106 05010KT P6SM SCT030 OVC080
     FM202000 07008KT P6SM SCT060
     FM210000 06006KT P6SM FEW060 SCT250=

Latest METAR

709
SAUS70 KWBC 201000 RRE
MTRFTY
METAR KFTY 200953Z 04004KT 10SM CLR 11/06 A3018 RMK AO2 SLP219
T01060056


USA.gov is the U.S. government's official web portal to all federal, state and local government web resources and services.